Chisholm Hibbing Airport
KHIB : now visible

Airfield :











YOU CAN JOIN US ON...

 
LOGIN :

Register | Disclaimer

   EN    FR    IT 

 









Legend :    VFR   Marginal VFR   IFR   Intensive IFR   Very Intensive IFR
Visi :
Ceiling :
>= 8 km
>= 3000ft
5 to 8 km
1000 to 3000 ft
1500m to 5 km
500 to 1000 ft
800 to 1500m
200 to 500 ft
< 800m
< 200 ft
Symbols :   Thunderstorms  Fog  Heavy snow  Heavy precipitations  Wind > 20 kt






- Airport Elevation : 1354 ft
- IATA code : HIB


KHIB - Chisholm Hibbing

CURRENT METAR :
  • 251753Z AUTO 32007KT 7SM UP FEW017 BKN031 OVC041 M04/M08 A3032 RMK AO2 UPB49SNB22E49 SLP297 P0000 60000 T10391083 11033 21083 58008

EXPIRED METARs :
  • 251739Z AUTO 31006KT 2SM -SN FEW017 BKN031 OVC041 M04/M07 A3033 RMK AO2 SNB22 P0000 T10441072
  • 251733Z AUTO 31007KT 1SM -SN SCT018 BKN025 OVC036 M04/M07 A3033 RMK AO2 SNB22 P0000 T10441072
  • 251653Z AUTO 32007KT 9SM FEW017 BKN042 OVC060 M04/M08 A3034 RMK AO2 SNB31E41 SLP304 P0000 T10441083
  • 251553Z AUTO 32008KT 6SM HZ SCT015 BKN045 OVC055 M04/M08 A3034 RMK AO2 SNB08E50 SLP303 P0000 T10441078

TAF KHIB
Valid from the 25 at 18:00 until the 26 at 18:00 UTC


251742Z 2518/2618 30007KT 6SM -SHSN SCT020 BKN035 OVC050
TEMPO 2518/2522 1SM -SHSN BKN020 OVC040
FM252200 28005KT 6SM -SHSN SCT020 BKN040
FM260100 28004KT P6SM VCSH BKN050
KZMP FIR / North America



MET'MAP, your aeronautical weather chart ! - Copyright ORBIFLY December 2007 - Disclaimer

ORBIFLY MET'MAP TEAM :

Programming & Development : Alexandra Zaïnal
Concept & original design : Baudouin d'Aumeries
Assistance for programming : Marc-Olivier Méhu
Technical & hardware support : Manuel Goepfert

Contact : metmap@orbifly.com




SOURCES & CREDITS :

   NOAA       Earth
Advisory